sensor_id;sensor_type;location;lat;lon;timestamp;P1;durP1;ratioP1;P2;durP2;ratioP2
57718;SDS011;43561;50.090;18.522;2023-08-06T00:09:09;13.38;;;11.82;;
57718;SDS011;43561;50.090;18.522;2023-08-06T00:19:11;14.00;;;11.68;;
57718;SDS011;43561;50.090;18.522;2023-08-06T00:29:13;16.05;;;13.27;;
57718;SDS011;43561;50.090;18.522;2023-08-06T00:39:16;18.20;;;13.55;;
57718;SDS011;43561;50.090;18.522;2023-08-06T00:49:18;17.58;;;13.85;;
57718;SDS011;43561;50.090;18.522;2023-08-06T00:59:20;17.08;;;13.20;;
57718;SDS011;43561;50.090;18.522;2023-08-06T01:19:24;13.90;;;12.52;;
57718;SDS011;43561;50.090;18.522;2023-08-06T01:29:39;15.88;;;12.27;;
57718;SDS011;43561;50.090;18.522;2023-08-06T01:39:45;18.63;;;13.23;;
57718;SDS011;43561;50.090;18.522;2023-08-06T01:49:47;16.88;;;12.85;;
57718;SDS011;43561;50.090;18.522;2023-08-06T01:59:49;14.05;;;11.30;;
57718;SDS011;43561;50.090;18.522;2023-08-06T02:09:50;10.70;;;8.27;;
57718;SDS011;43561;50.090;18.522;2023-08-06T02:19:54;8.75;;;7.95;;
57718;SDS011;43561;50.090;18.522;2023-08-06T02:29:56;8.48;;;7.55;;
57718;SDS011;43561;50.090;18.522;2023-08-06T02:39:58;8.73;;;7.22;;
57718;SDS011;43561;50.090;18.522;2023-08-06T02:50:00;5.05;;;4.40;;
57718;SDS011;43561;50.090;18.522;2023-08-06T03:00:04;4.30;;;3.90;;
57718;SDS011;43561;50.090;18.522;2023-08-06T03:10:07;4.38;;;3.47;;
57718;SDS011;43561;50.090;18.522;2023-08-06T03:20:09;4.28;;;2.40;;
57718;SDS011;43561;50.090;18.522;2023-08-06T03:30:15;1.52;;;1.35;;
57718;SDS011;43561;50.090;18.522;2023-08-06T03:40:17;1.27;;;1.02;;
57718;SDS011;43561;50.090;18.522;2023-08-06T03:50:20;1.10;;;0.80;;
57718;SDS011;43561;50.090;18.522;2023-08-06T04:00:22;1.58;;;0.90;;
57718;SDS011;43561;50.090;18.522;2023-08-06T04:10:27;1.67;;;1.08;;
57718;SDS011;43561;50.090;18.522;2023-08-06T04:20:29;1.00;;;0.70;;
57718;SDS011;43561;50.090;18.522;2023-08-06T04:30:32;3.95;;;2.00;;
57718;SDS011;43561;50.090;18.522;2023-08-06T04:40:36;1.45;;;0.80;;
57718;SDS011;43561;50.090;18.522;2023-08-06T04:50:42;0.88;;;0.57;;
57718;SDS011;43561;50.090;18.522;2023-08-06T05:00:48;5.22;;;3.20;;
57718;SDS011;43561;50.090;18.522;2023-08-06T05:10:50;1.95;;;1.00;;
57718;SDS011;43561;50.090;18.522;2023-08-06T05:20:52;8.77;;;5.65;;
57718;SDS011;43561;50.090;18.522;2023-08-06T05:30:54;8.02;;;1.20;;
57718;SDS011;43561;50.090;18.522;2023-08-06T05:40:56;5.68;;;3.85;;
57718;SDS011;43561;50.090;18.522;2023-08-06T05:50:57;1.38;;;0.52;;
57718;SDS011;43561;50.090;18.522;2023-08-06T06:00:59;1.25;;;0.63;;
57718;SDS011;43561;50.090;18.522;2023-08-06T06:11:01;1.13;;;0.93;;
57718;SDS011;43561;50.090;18.522;2023-08-06T06:21:03;1.73;;;0.63;;
57718;SDS011;43561;50.090;18.522;2023-08-06T06:31:05;1.15;;;0.50;;
57718;SDS011;43561;50.090;18.522;2023-08-06T06:41:07;3.75;;;2.05;;
57718;SDS011;43561;50.090;18.522;2023-08-06T06:51:09;1.33;;;0.55;;
57718;SDS011;43561;50.090;18.522;2023-08-06T07:01:11;3.17;;;0.77;;
57718;SDS011;43561;50.090;18.522;2023-08-06T07:11:13;1.20;;;0.32;;
57718;SDS011;43561;50.090;18.522;2023-08-06T07:21:15;4.32;;;1.30;;
57718;SDS011;43561;50.090;18.522;2023-08-06T07:31:17;0.85;;;0.30;;
57718;SDS011;43561;50.090;18.522;2023-08-06T07:41:20;2.60;;;0.30;;
57718;SDS011;43561;50.090;18.522;2023-08-06T07:51:22;12.82;;;10.40;;
57718;SDS011;43561;50.090;18.522;2023-08-06T08:01:23;1.77;;;1.27;;
57718;SDS011;43561;50.090;18.522;2023-08-06T08:11:26;3.80;;;1.88;;
57718;SDS011;43561;50.090;18.522;2023-08-06T08:21:28;8.13;;;4.78;;
57718;SDS011;43561;50.090;18.522;2023-08-06T08:31:30;1.70;;;1.20;;
57718;SDS011;43561;50.090;18.522;2023-08-06T08:41:33;1.90;;;1.45;;
57718;SDS011;43561;50.090;18.522;2023-08-06T08:51:35;11.25;;;6.22;;
57718;SDS011;43561;50.090;18.522;2023-08-06T09:01:37;13.48;;;8.90;;
57718;SDS011;43561;50.090;18.522;2023-08-06T09:11:43;9.45;;;6.00;;
57718;SDS011;43561;50.090;18.522;2023-08-06T09:21:45;10.57;;;6.10;;
57718;SDS011;43561;50.090;18.522;2023-08-06T09:31:48;11.73;;;6.72;;
57718;SDS011;43561;50.090;18.522;2023-08-06T09:41:52;2.60;;;2.17;;
57718;SDS011;43561;50.090;18.522;2023-08-06T09:51:57;9.13;;;4.82;;
57718;SDS011;43561;50.090;18.522;2023-08-06T10:02:00;7.78;;;2.72;;
57718;SDS011;43561;50.090;18.522;2023-08-06T10:12:04;6.03;;;3.30;;
57718;SDS011;43561;50.090;18.522;2023-08-06T10:22:16;2.60;;;1.55;;
57718;SDS011;43561;50.090;18.522;2023-08-06T10:32:19;5.22;;;3.45;;
57718;SDS011;43561;50.090;18.522;2023-08-06T10:42:22;11.75;;;7.22;;
57718;SDS011;43561;50.090;18.522;2023-08-06T10:52:28;22.23;;;5.15;;
57718;SDS011;43561;50.090;18.522;2023-08-06T11:02:33;4.03;;;2.00;;
57718;SDS011;43561;50.090;18.522;2023-08-06T11:12:35;3.08;;;2.20;;
57718;SDS011;43561;50.090;18.522;2023-08-06T11:22:38;4.95;;;2.83;;
57718;SDS011;43561;50.090;18.522;2023-08-06T11:32:46;3.10;;;2.25;;
57718;SDS011;43561;50.090;18.522;2023-08-06T11:42:50;1.90;;;1.10;;
57718;SDS011;43561;50.090;18.522;2023-08-06T11:52:52;1.13;;;0.80;;
57718;SDS011;43561;50.090;18.522;2023-08-06T12:02:59;3.10;;;1.70;;
57718;SDS011;43561;50.090;18.522;2023-08-06T12:13:01;5.38;;;3.22;;
57718;SDS011;43561;50.090;18.522;2023-08-06T12:23:03;1.48;;;1.20;;
57718;SDS011;43561;50.090;18.522;2023-08-06T12:33:05;1.35;;;0.80;;
57718;SDS011;43561;50.090;18.522;2023-08-06T12:43:07;1.23;;;0.52;;
57718;SDS011;43561;50.090;18.522;2023-08-06T12:53:09;3.10;;;0.85;;
57718;SDS011;43561;50.090;18.522;2023-08-06T13:03:11;1.70;;;0.95;;
57718;SDS011;43561;50.090;18.522;2023-08-06T13:13:13;19.15;;;10.93;;
57718;SDS011;43561;50.090;18.522;2023-08-06T13:23:15;1.63;;;0.98;;
57718;SDS011;43561;50.090;18.522;2023-08-06T13:33:17;2.25;;;0.70;;
57718;SDS011;43561;50.090;18.522;2023-08-06T13:43:19;1.75;;;1.17;;
57718;SDS011;43561;50.090;18.522;2023-08-06T13:53:22;1.98;;;0.70;;
57718;SDS011;43561;50.090;18.522;2023-08-06T14:03:24;2.67;;;1.00;;
57718;SDS011;43561;50.090;18.522;2023-08-06T14:13:26;2.15;;;0.88;;
57718;SDS011;43561;50.090;18.522;2023-08-06T14:23:28;2.38;;;0.77;;
57718;SDS011;43561;50.090;18.522;2023-08-06T14:33:30;1.73;;;1.10;;
57718;SDS011;43561;50.090;18.522;2023-08-06T14:43:35;1.17;;;0.75;;
57718;SDS011;43561;50.090;18.522;2023-08-06T14:53:37;1.60;;;1.08;;
57718;SDS011;43561;50.090;18.522;2023-08-06T15:03:40;2.17;;;1.98;;
57718;SDS011;43561;50.090;18.522;2023-08-06T15:13:42;5.53;;;3.15;;
57718;SDS011;43561;50.090;18.522;2023-08-06T15:23:44;6.78;;;1.15;;
57718;SDS011;43561;50.090;18.522;2023-08-06T15:33:46;2.08;;;0.90;;
57718;SDS011;43561;50.090;18.522;2023-08-06T15:43:48;1.77;;;1.10;;
57718;SDS011;43561;50.090;18.522;2023-08-06T15:53:49;3.20;;;1.17;;
57718;SDS011;43561;50.090;18.522;2023-08-06T16:03:51;3.75;;;1.23;;
57718;SDS011;43561;50.090;18.522;2023-08-06T16:13:53;2.38;;;1.63;;
57718;SDS011;43561;50.090;18.522;2023-08-06T16:23:55;1.50;;;1.35;;
57718;SDS011;43561;50.090;18.522;2023-08-06T16:33:57;3.75;;;1.48;;
57718;SDS011;43561;50.090;18.522;2023-08-06T16:43:59;1.45;;;1.10;;
57718;SDS011;43561;50.090;18.522;2023-08-06T16:54:01;4.70;;;1.95;;
57718;SDS011;43561;50.090;18.522;2023-08-06T17:04:03;3.83;;;1.90;;
57718;SDS011;43561;50.090;18.522;2023-08-06T17:14:05;4.05;;;1.58;;
57718;SDS011;43561;50.090;18.522;2023-08-06T17:24:07;3.00;;;1.20;;
57718;SDS011;43561;50.090;18.522;2023-08-06T17:34:09;4.35;;;2.40;;
57718;SDS011;43561;50.090;18.522;2023-08-06T17:44:11;2.30;;;1.33;;
57718;SDS011;43561;50.090;18.522;2023-08-06T17:54:15;1.88;;;1.33;;
57718;SDS011;43561;50.090;18.522;2023-08-06T18:04:17;2.47;;;1.98;;
57718;SDS011;43561;50.090;18.522;2023-08-06T18:14:19;3.47;;;1.30;;
57718;SDS011;43561;50.090;18.522;2023-08-06T18:24:20;4.53;;;1.73;;
57718;SDS011;43561;50.090;18.522;2023-08-06T18:34:22;5.18;;;1.70;;
57718;SDS011;43561;50.090;18.522;2023-08-06T18:44:25;2.80;;;2.08;;
57718;SDS011;43561;50.090;18.522;2023-08-06T18:54:27;2.28;;;1.95;;
57718;SDS011;43561;50.090;18.522;2023-08-06T19:04:29;3.05;;;2.00;;
57718;SDS011;43561;50.090;18.522;2023-08-06T19:14:30;5.05;;;2.60;;
57718;SDS011;43561;50.090;18.522;2023-08-06T19:24:33;4.22;;;2.67;;
57718;SDS011;43561;50.090;18.522;2023-08-06T19:34:35;9.60;;;4.85;;
57718;SDS011;43561;50.090;18.522;2023-08-06T19:44:37;5.55;;;4.00;;
57718;SDS011;43561;50.090;18.522;2023-08-06T19:54:39;12.30;;;4.95;;
57718;SDS011;43561;50.090;18.522;2023-08-06T20:04:41;6.80;;;2.45;;
57718;SDS011;43561;50.090;18.522;2023-08-06T20:14:43;6.28;;;4.18;;
57718;SDS011;43561;50.090;18.522;2023-08-06T20:24:49;5.57;;;4.38;;
57718;SDS011;43561;50.090;18.522;2023-08-06T20:34:52;7.30;;;4.38;;
57718;SDS011;43561;50.090;18.522;2023-08-06T20:44:54;5.20;;;4.50;;
57718;SDS011;43561;50.090;18.522;2023-08-06T20:54:56;7.40;;;4.45;;
57718;SDS011;43561;50.090;18.522;2023-08-06T21:04:58;4.30;;;3.70;;
57718;SDS011;43561;50.090;18.522;2023-08-06T21:15:00;4.28;;;3.75;;
57718;SDS011;43561;50.090;18.522;2023-08-06T21:25:02;5.97;;;3.97;;
57718;SDS011;43561;50.090;18.522;2023-08-06T21:35:04;4.32;;;3.33;;
57718;SDS011;43561;50.090;18.522;2023-08-06T21:45:08;4.22;;;3.33;;
57718;SDS011;43561;50.090;18.522;2023-08-06T21:55:10;4.78;;;3.90;;
57718;SDS011;43561;50.090;18.522;2023-08-06T22:05:15;6.15;;;3.97;;
57718;SDS011;43561;50.090;18.522;2023-08-06T22:15:17;7.13;;;5.07;;
57718;SDS011;43561;50.090;18.522;2023-08-06T22:25:19;6.68;;;5.25;;
57718;SDS011;43561;50.090;18.522;2023-08-06T22:35:21;8.68;;;5.97;;
57718;SDS011;43561;50.090;18.522;2023-08-06T22:45:24;8.52;;;6.20;;
57718;SDS011;43561;50.090;18.522;2023-08-06T22:55:25;9.55;;;7.88;;
57718;SDS011;43561;50.090;18.522;2023-08-06T23:05:30;9.18;;;7.70;;
57718;SDS011;43561;50.090;18.522;2023-08-06T23:15:32;10.80;;;7.80;;
57718;SDS011;43561;50.090;18.522;2023-08-06T23:25:34;8.15;;;7.13;;
57718;SDS011;43561;50.090;18.522;2023-08-06T23:35:36;9.60;;;7.93;;
57718;SDS011;43561;50.090;18.522;2023-08-06T23:45:38;9.55;;;7.40;;
57718;SDS011;43561;50.090;18.522;2023-08-06T23:55:40;10.52;;;6.93;;
